Latest Weather Observations for Double Island Point

IDQ60801

Issued at 8:35 am EST Saturday 26 July 2014 (issued every 30 minutes, with the page automatically refreshed every 10 minutes)

About weather observations | Map of weather stations | Latest weather observations for QLD | Other Formats
Station Details ID: 040068 Name: DOUBLE ISLAND POINT LIGHTHOUSE Lat: -25.93 Lon: 153.19 Height: 95.64 m
Data from the previous 72 hours. | See also: Recent months at Double Island Point
Date/Time
EST
Temp
°C
App
Temp
°C
Dew
Point
Rel
Hum
%
Delta-T
°C
Wind Press
QNH
hPa
Press
MSL
hPa
Rain
since 9 am
mm
Dir
 
Spd
km/h
Gust
km/h
Spd
kts
Gust
kts
26/08:30am 19.7 20.2 14.9 74 2.8 N 6 7 3 4 1027.2 - 0.0
26/08:00am 19.2 19.5 15.1 77 2.4 NW 7 9 4 5 1027.3 1027.1 0.0
26/07:30am 18.9 18.7 14.6 76 2.5 N 9 11 5 6 1026.6 - 0.0
26/07:00am 18.8 18.8 14.1 74 2.7 N 7 11 4 6 1026.4 1026.2 0.0
26/06:30am 19.1 17.7 14.4 74 2.7 NNE 15 19 8 10 1026.2 - 0.0
26/06:00am 18.9 18.2 14.2 74 2.7 NE 11 15 6 8 1025.6 1025.4 0.0
26/05:30am 19.2 17.0 14.5 74 2.7 NNE 19 20 10 11 1025.8 - 0.0
26/05:00am 19.0 16.6 14.3 74 2.7 NNE 20 22 11 12 1025.6 1025.4 0.0
26/04:30am 18.8 17.0 13.4 71 3.1 NNE 15 19 8 10 1025.3 - 0.0
26/04:00am 18.8 16.9 14.1 74 2.7 NNE 17 20 9 11 1025.4 1025.2 0.0
26/03:30am 19.0 17.0 13.8 72 3.0 NNE 17 20 9 11 1025.5 - 0.0
26/03:00am 18.8 16.7 13.6 72 3.0 NNE 17 26 9 14 1025.5 1025.3 0.0
26/02:30am 18.8 18.0 14.1 74 2.7 NNE 11 17 6 9 1025.6 - 0.0
26/02:00am 17.9 15.4 13.4 75 2.5 NNE 19 30 10 16 1025.8 1025.6 0.0
26/01:30am 18.9 13.0 14.6 76 2.5 NNE 39 44 21 24 1025.6 - 0.0
26/01:00am 18.8 16.7 13.6 72 3.0 NNE 17 20 9 11 1026.1 1025.9 0.0
26/12:30am 18.7 16.1 13.3 71 3.1 NNE 19 24 10 13 1026.2 - 0.0
26/12:00am 18.5 17.0 13.1 71 3.0 NNE 13 22 7 12 1026.2 1026.0 0.0
 
Date/Time
EST
Temp
°C
App
Temp
°C
Dew
Point
Rel
Hum
%
Delta-T
°C
Wind Press
QNH
hPa
Press
MSL
hPa
Rain
since 9 am
mm
Dir
 
Spd
km/h
Gust
km/h
Spd
kts
Gust
kts
25/11:30pm 18.7 17.1 13.8 73 2.8 NNE 15 22 8 12 1026.5 - 0.0
25/11:00pm 18.8 17.6 13.9 73 2.8 NNE 13 19 7 10 1026.7 1026.5 0.0
25/10:30pm 18.8 17.5 13.6 72 3.0 NNE 13 19 7 10 1026.8 - 0.0
25/10:00pm 18.9 16.3 13.3 70 3.2 NNE 19 22 10 12 1026.9 1026.7 0.0
25/09:30pm 18.8 16.9 13.0 69 3.3 NNE 15 20 8 11 1027.0 - 0.0
25/09:00pm 19.1 17.4 13.5 70 3.2 NNE 15 24 8 13 1026.8 1026.6 0.0
25/08:30pm 19.1 17.8 13.7 71 3.1 NE 13 20 7 11 1026.6 - 0.0
25/08:00pm 18.8 17.0 13.4 71 3.1 NNE 15 19 8 10 1026.2 1026.0 0.0
25/07:30pm 18.9 17.5 13.3 70 3.2 NE 13 19 7 10 1025.9 - 0.0
25/07:00pm 18.7 16.7 12.7 68 3.4 NNE 15 24 8 13 1025.7 1025.5 0.0
25/06:30pm 18.8 16.7 12.5 67 3.5 NE 15 24 8 13 1025.4 - 0.0
25/06:00pm 19.0 17.4 12.7 67 3.5 NE 13 20 7 11 1025.2 1025.0 0.0
25/05:30pm 19.1 17.4 12.4 65 3.8 NE 13 19 7 10 1024.8 - 0.0
25/05:00pm 20.2 18.1 12.4 61 4.4 NE 15 19 8 10 1024.5 1024.3 0.0
25/04:30pm 20.6 18.9 12.3 59 4.7 NE 13 19 7 10 1024.2 - 0.0
25/04:00pm 20.6 18.6 12.6 60 4.5 NE 15 20 8 11 1024.1 1024.0 0.0
25/03:30pm 19.6 19.5 15.0 75 2.7 ESE 9 13 5 7 1024.0 - 0.0
25/03:00pm 19.6 19.0 15.7 78 2.3 SE 13 15 7 8 1024.0 1023.9 0.0
25/02:30pm 19.6 19.1 15.9 79 2.2 SSE 13 13 7 7 1024.1 - 0.0
25/02:00pm 19.6 19.1 15.9 79 2.2 SSE 13 19 7 10 1024.2 1024.1 0.0
25/01:30pm 19.2 18.2 15.7 80 2.1 SSE 15 19 8 10 1024.5 - 0.0
25/01:00pm 19.2 17.9 15.7 80 2.1 S 17 20 9 11 1024.7 1024.5 0.0
25/12:30pm 19.3 17.7 16.0 81 2.0 S 19 20 10 11 1025.1 - 0.0
25/12:00pm 18.7 16.9 15.4 81 1.9 S 19 22 10 12 1025.5 1025.3 0.0
25/11:30am 18.9 16.9 15.6 81 2.0 S 20 24 11 13 1025.9 - 0.0
25/11:00am 18.7 16.7 15.4 81 1.9 S 20 24 11 13 1026.3 1026.1 0.0
25/10:30am 18.6 16.5 15.3 81 1.9 S 20 26 11 14 1026.5 - 0.0
25/10:00am 18.5 16.4 15.2 81 1.9 S 20 26 11 14 1026.6 1026.4 0.0
25/09:30am 18.6 16.3 15.7 83 1.7 S 22 26 12 14 1026.7 - 0.0
25/09:00am 18.2 15.8 15.5 84 1.6 S 22 26 12 14 1026.5 1026.3 2.8
25/08:30am 17.7 15.8 15.3 86 1.4 S 19 24 10 13 1026.3 - 2.8
25/08:00am 17.4 15.4 15.0 86 1.4 S 19 22 10 12 1026.0 1025.8 2.8
25/07:30am 16.8 14.4 14.3 85 1.4 S 20 22 11 12 1025.7 - 2.8
25/07:00am 17.0 15.3 13.7 81 1.9 S 15 19 8 10 1025.5 1025.3 2.8
25/06:30am 17.1 17.0 13.8 81 1.9 SSW 7 9 4 5 1025.1 - 2.8
25/06:00am 17.2 18.5 14.1 82 1.8 CALM 0 0 0 0 1024.8 1024.6 2.8
25/05:30am 16.9 18.2 14.2 84 1.5 CALM 0 0 0 0 1024.4 - 2.8
25/05:00am 16.9 16.2 14.4 85 1.4 W 11 15 6 8 1024.2 1024.1 2.8
25/04:30am 16.7 16.6 14.0 84 1.5 NNW 7 9 4 5 1023.9 - 2.8
25/04:00am 16.8 15.5 13.7 82 1.8 NNW 13 19 7 10 1023.7 1023.6 2.8
25/03:30am 16.8 16.5 13.3 80 2.0 N 7 11 4 6 1023.6 - 2.8
25/03:00am 17.1 16.8 13.4 79 2.1 SW 7 20 4 11 1023.6 1023.5 2.8
25/02:30am 17.5 15.7 13.2 76 2.4 ENE 15 20 8 11 1023.8 - 2.8
25/02:00am 17.7 15.1 14.8 83 1.7 N 22 28 12 15 1023.8 1023.7 2.8
25/01:30am 18.1 16.9 14.0 77 2.4 NE 13 17 7 9 1023.9 - 2.8
25/01:00am 18.2 17.0 13.9 76 2.5 ENE 13 17 7 9 1023.9 1023.8 2.8
25/12:30am 18.1 16.0 13.6 75 2.6 ENE 17 20 9 11 1023.8 - 2.8
25/12:00am 17.8 15.3 14.1 79 2.1 ENE 20 24 11 13 1023.9 1023.8 2.8
 
Date/Time
EST
Temp
°C
App
Temp
°C
Dew
Point
Rel
Hum
%
Delta-T
°C
Wind Press
QNH
hPa
Press
MSL
hPa
Rain
since 9 am
mm
Dir
 
Spd
km/h
Gust
km/h
Spd
kts
Gust
kts
24/11:30pm 17.9 14.4 14.4 80 2.0 ENE 26 32 14 17 1024.0 - 2.8
24/11:00pm 17.9 16.5 13.4 75 2.5 NE 13 19 7 10 1024.1 1024.0 2.8
24/10:30pm 18.0 16.7 13.7 76 2.5 NE 13 17 7 9 1024.1 - 2.8
24/10:00pm 18.0 16.6 13.3 74 2.7 NE 13 17 7 9 1024.1 1024.0 2.8
24/09:30pm 18.0 15.9 13.5 75 2.6 ENE 17 20 9 11 1024.1 - 2.8
24/09:00pm 18.0 15.5 13.5 75 2.5 ENE 19 24 10 13 1024.0 1023.9 2.8
24/08:30pm 17.7 15.0 13.6 77 2.3 ENE 20 28 11 15 1023.7 - 2.8
24/08:00pm 17.8 14.9 12.9 73 2.7 ENE 20 26 11 14 1023.4 1023.3 2.8
24/07:30pm 17.5 14.7 12.6 73 2.7 E 19 22 10 12 1023.3 - 2.8
24/07:00pm 17.4 14.6 12.7 74 2.6 E 19 22 10 12 1022.9 1022.8 2.8
24/06:30pm 17.4 14.5 12.9 75 2.5 E 20 24 11 13 1022.5 - 2.8
24/06:00pm 17.4 14.6 13.1 76 2.4 E 20 26 11 14 1022.1 1022.0 2.8
24/05:30pm 17.4 14.5 12.9 75 2.5 E 20 26 11 14 1021.8 - 2.8
24/05:00pm 17.9 14.5 13.6 76 2.4 E 24 28 13 15 1021.5 1021.4 2.8
24/04:30pm 18.6 15.9 13.5 72 2.9 E 20 26 11 14 1021.2 - 2.8
24/04:00pm 18.7 16.1 13.1 70 3.2 E 19 22 10 12 1021.0 1020.9 2.8
24/03:30pm 18.7 16.7 13.8 73 2.8 E 17 20 9 11 1021.0 - 2.8
24/03:00pm 18.2 16.6 13.9 76 2.5 ESE 15 19 8 10 1021.1 1021.0 2.8
24/02:30pm 17.5 16.2 13.6 78 2.2 SE 13 19 7 10 1021.2 - 2.8
24/02:00pm 17.5 16.5 14.6 83 1.7 E 13 17 7 9 1021.2 1021.1 2.8
24/01:30pm 18.5 14.6 13.4 72 2.9 E 26 30 14 16 1021.1 - 0.0
24/01:00pm 19.9 17.2 12.9 64 4.0 SE 19 22 10 12 1021.2 1021.1 0.0
24/12:30pm 19.5 16.6 12.3 63 4.0 ESE 19 24 10 13 1021.3 - 0.0
24/12:00pm 19.8 17.2 13.3 66 3.7 SE 19 22 10 12 1021.5 1021.4 0.0
24/11:30am 18.4 14.9 14.5 78 2.3 S 26 32 14 17 1022.3 - 0.0
24/11:00am 18.4 15.0 14.7 79 2.1 S 26 32 14 17 1022.7 1022.6 0.0
24/10:30am 18.1 15.0 14.4 79 2.1 SSE 24 28 13 15 1022.6 - 0.0
24/10:00am 18.3 15.2 14.4 78 2.2 SSE 24 30 13 16 1022.7 1022.6 0.0
24/09:30am 17.6 13.7 14.3 81 1.9 S 28 35 15 19 1022.4 - 0.0
24/09:00am 17.7 13.7 14.2 80 2.0 SSE 28 33 15 18 1022.3 1022.2 0.0
24/08:30am 17.1 12.8 14.4 84 1.6 S 30 37 16 20 1022.1 - 0.0
24/08:00am 16.2 12.4 13.7 85 1.4 S 26 33 14 18 1022.1 1022.0 0.0
24/07:30am 15.7 11.0 13.2 85 1.4 S 30 35 16 19 1022.0 - 0.0
24/07:00am 15.6 11.7 13.3 86 1.3 S 26 30 14 16 1021.6 1021.5 0.0
24/06:30am 15.5 11.9 13.2 86 1.3 S 24 30 13 16 1021.4 - 0.0
24/06:00am 15.6 12.4 13.1 85 1.4 S 22 26 12 14 1021.1 1021.0 0.0
24/05:30am 15.8 12.9 12.9 83 1.6 S 20 24 11 13 1020.9 - 0.0
24/05:00am 16.6 13.3 12.9 79 2.1 S 22 28 12 15 1020.6 1020.5 0.0
24/04:30am 17.4 13.6 11.0 66 3.5 SE 22 26 12 14 1020.4 - 0.0
24/04:00am 17.3 13.1 11.1 67 3.3 SE 24 30 13 16 1020.4 1020.3 0.0
24/03:30am 17.3 13.4 10.9 66 3.5 SE 22 26 12 14 1020.4 - 0.0
24/03:00am 17.3 13.0 10.9 66 3.4 SE 24 28 13 15 1020.6 1020.5 0.0
24/02:30am 17.3 13.0 10.9 66 3.5 SE 24 32 13 17 1020.6 - 0.0
24/02:00am 17.5 13.0 11.5 68 3.3 SE 26 30 14 16 1020.6 1020.5 0.0
24/01:30am 17.4 13.3 11.4 68 3.3 ESE 24 28 13 15 1020.7 - 0.0
24/01:00am 17.7 13.1 12.2 70 3.0 ESE 28 32 15 17 1020.5 1020.4 0.0
24/12:30am 17.5 13.1 11.8 69 3.1 ESE 26 32 14 17 1020.7 - 0.0
24/12:00am 17.5 12.7 11.8 69 3.1 ESE 28 33 15 18 1020.8 1020.7 0.0
 
Date/Time
EST
Temp
°C
App
Temp
°C
Dew
Point
Rel
Hum
%
Delta-T
°C
Wind Press
QNH
hPa
Press
MSL
hPa
Rain
since 9 am
mm
Dir
 
Spd
km/h
Gust
km/h
Spd
kts
Gust
kts
23/11:30pm 17.5 12.3 11.5 68 3.3 ESE 30 37 16 20 1020.9 - 0.0
23/11:00pm 17.5 12.2 11.3 67 3.4 ESE 30 37 16 20 1021.1 1021.0 0.0
23/10:30pm 17.4 12.1 11.2 67 3.4 ESE 30 33 16 18 1021.4 - 0.0
23/10:00pm 17.5 12.2 11.3 67 3.4 ESE 30 37 16 20 1021.7 1021.6 0.0
23/09:30pm 17.7 12.5 11.5 67 3.4 ESE 30 37 16 20 1021.4 - 0.0
23/09:00pm 17.7 12.5 11.7 68 3.3 SE 30 37 16 20 1021.5 1021.4 0.0
23/08:30pm 17.5 11.8 11.1 66 3.5 ESE 32 39 17 21 1021.1 - 0.0
23/08:00pm 17.5 11.3 11.3 67 3.4 ESE 35 41 19 22 1020.9 1020.8 0.0
23/07:30pm 17.5 11.3 11.5 68 3.3 SE 35 41 19 22 1020.5 - 0.0
23/07:00pm 17.4 11.7 11.9 70 3.0 SE 33 39 18 21 1020.8 1020.7 0.0
23/06:30pm 17.2 11.5 11.9 71 2.9 SSE 33 41 18 22 1020.6 - 0.0
23/06:00pm 17.2 10.9 11.2 68 3.2 SE 35 41 19 22 1020.3 1020.2 0.0
23/05:30pm 17.1 11.0 11.6 70 3.0 SE 35 41 19 22 1020.1 - 0.0
23/05:00pm 16.9 10.9 12.0 73 2.7 SSE 35 44 19 24 1020.0 1019.9 0.0
23/04:30pm 16.9 10.8 11.8 72 2.8 SSE 35 46 19 25 1019.9 - 0.0
23/04:00pm 17.0 10.7 11.1 68 3.2 SSE 35 41 19 22 1019.8 1019.7 0.0
23/03:30pm 17.3 11.8 11.8 70 3.0 SSE 32 39 17 21 1019.9 - 0.0
23/03:00pm 17.3 11.5 10.9 66 3.4 SSE 32 39 17 21 1019.9 1019.8 0.0
23/02:30pm 17.4 11.7 11.2 67 3.4 SSE 32 39 17 21 1020.0 - 0.0
23/02:00pm 17.7 12.0 11.7 68 3.3 SSE 33 41 18 22 1020.0 1019.9 0.0
23/01:30pm 17.7 11.9 11.5 67 3.4 SSE 33 41 18 22 1020.3 - 0.0
23/01:00pm 17.5 11.4 11.8 69 3.1 SSE 35 43 19 23 1019.9 1019.8 0.0
23/12:30pm 17.4 11.3 11.9 70 3.0 SSE 35 46 19 25 1020.1 - 0.0
23/12:00pm 17.3 11.3 12.2 72 2.8 S 35 46 19 25 1020.9 1020.8 0.0
23/11:30am 17.7 12.4 13.0 74 2.6 SSE 33 44 18 24 1021.3 - 0.0
23/11:00am 17.2 10.9 12.3 73 2.7 S 37 48 20 26 1021.7 1021.6 0.0
23/10:30am 17.1 10.4 12.4 74 2.6 S 39 50 21 27 1021.9 - 0.0
23/10:00am 16.6 10.3 12.4 76 2.3 S 37 46 20 25 1022.3 1022.2 0.0
23/09:30am 16.3 10.4 12.3 77 2.2 S 35 46 19 25 1022.3 - 0.0
23/09:00am 16.2 9.9 12.4 78 2.1 S 37 46 20 25 1022.2 1022.1 1.2

Other Formats:

Comma delimited format used in spreadsheet applications
http://www.bom.gov.au/fwo/IDQ60801/IDQ60801.94584.axf

JavaScript Object Notation format (JSON) in row-major order
http://www.bom.gov.au/fwo/IDQ60801/IDQ60801.94584.json